sensor_id;sensor_type;location;lat;lon;timestamp;temperature;humidity
25991;DHT22;13779;-33.886;151.198;2022-12-10T00:00:31;19.30;99.90
25991;DHT22;13779;-33.886;151.198;2022-12-10T00:03:02;19.30;99.90
25991;DHT22;13779;-33.886;151.198;2022-12-10T00:05:36;19.40;99.90
25991;DHT22;13779;-33.886;151.198;2022-12-10T00:08:07;19.40;99.90
25991;DHT22;13779;-33.886;151.198;2022-12-10T00:10:41;19.40;99.90
25991;DHT22;13779;-33.886;151.198;2022-12-10T00:13:11;19.40;99.90
25991;DHT22;13779;-33.886;151.198;2022-12-10T00:15:42;19.60;99.90
25991;DHT22;13779;-33.886;151.198;2022-12-10T00:18:12;19.70;99.90
25991;DHT22;13779;-33.886;151.198;2022-12-10T00:20:43;19.90;99.90
25991;DHT22;13779;-33.886;151.198;2022-12-10T00:23:13;20.00;99.90
25991;DHT22;13779;-33.886;151.198;2022-12-10T00:25:49;20.00;99.90
25991;DHT22;13779;-33.886;151.198;2022-12-10T00:28:20;20.10;99.90
25991;DHT22;13779;-33.886;151.198;2022-12-10T00:30:50;20.20;99.90
25991;DHT22;13779;-33.886;151.198;2022-12-10T00:33:20;20.10;99.90
25991;DHT22;13779;-33.886;151.198;2022-12-10T00:35:50;20.00;99.90
25991;DHT22;13779;-33.886;151.198;2022-12-10T00:38:20;20.00;99.90
25991;DHT22;13779;-33.886;151.198;2022-12-10T00:40:50;19.90;99.90
25991;DHT22;13779;-33.886;151.198;2022-12-10T00:43:20;19.90;99.90
25991;DHT22;13779;-33.886;151.198;2022-12-10T00:45:50;19.80;99.90
25991;DHT22;13779;-33.886;151.198;2022-12-10T00:48:21;19.70;99.90
25991;DHT22;13779;-33.886;151.198;2022-12-10T00:51:02;19.60;99.90
25991;DHT22;13779;-33.886;151.198;2022-12-10T00:53:34;19.60;99.90
25991;DHT22;13779;-33.886;151.198;2022-12-10T00:56:06;19.50;99.90
25991;DHT22;13779;-33.886;151.198;2022-12-10T00:58:37;19.40;99.90
25991;DHT22;13779;-33.886;151.198;2022-12-10T01:03:53;19.40;99.90
25991;DHT22;13779;-33.886;151.198;2022-12-10T01:06:26;19.60;99.90
25991;DHT22;13779;-33.886;151.198;2022-12-10T01:09:02;19.60;99.90
25991;DHT22;13779;-33.886;151.198;2022-12-10T01:11:36;19.70;99.90
25991;DHT22;13779;-33.886;151.198;2022-12-10T01:14:12;19.80;99.90
25991;DHT22;13779;-33.886;151.198;2022-12-10T01:16:44;19.90;99.90
25991;DHT22;13779;-33.886;151.198;2022-12-10T01:19:14;19.80;99.90
25991;DHT22;13779;-33.886;151.198;2022-12-10T01:21:45;19.70;99.90
25991;DHT22;13779;-33.886;151.198;2022-12-10T01:24:15;19.70;99.90
25991;DHT22;13779;-33.886;151.198;2022-12-10T01:26:46;19.70;99.90
25991;DHT22;13779;-33.886;151.198;2022-12-10T01:29:17;19.70;99.90
25991;DHT22;13779;-33.886;151.198;2022-12-10T01:31:51;19.70;99.90
25991;DHT22;13779;-33.886;151.198;2022-12-10T01:34:21;19.70;99.90
25991;DHT22;13779;-33.886;151.198;2022-12-10T01:36:53;19.70;99.90
25991;DHT22;13779;-33.886;151.198;2022-12-10T01:39:24;19.90;99.90
25991;DHT22;13779;-33.886;151.198;2022-12-10T01:41:57;20.10;99.90
25991;DHT22;13779;-33.886;151.198;2022-12-10T01:47:00;20.30;99.90
25991;DHT22;13779;-33.886;151.198;2022-12-10T01:49:38;20.20;99.90
25991;DHT22;13779;-33.886;151.198;2022-12-10T01:52:10;20.10;99.90
25991;DHT22;13779;-33.886;151.198;2022-12-10T01:54:45;20.10;99.90
25991;DHT22;13779;-33.886;151.198;2022-12-10T01:57:27;20.20;99.90
25991;DHT22;13779;-33.886;151.198;2022-12-10T02:00:00;20.20;99.90
25991;DHT22;13779;-33.886;151.198;2022-12-10T02:02:44;20.20;99.90
25991;DHT22;13779;-33.886;151.198;2022-12-10T02:05:19;20.20;99.90
25991;DHT22;13779;-33.886;151.198;2022-12-10T02:07:59;20.10;99.90
25991;DHT22;13779;-33.886;151.198;2022-12-10T02:11:16;20.10;99.90
25991;DHT22;13779;-33.886;151.198;2022-12-10T02:13:45;20.10;99.90
25991;DHT22;13779;-33.886;151.198;2022-12-10T02:16:30;20.20;99.90
25991;DHT22;13779;-33.886;151.198;2022-12-10T02:19:38;20.10;99.90
25991;DHT22;13779;-33.886;151.198;2022-12-10T02:22:07;20.00;99.90
25991;DHT22;13779;-33.886;151.198;2022-12-10T02:24:38;20.00;99.90
25991;DHT22;13779;-33.886;151.198;2022-12-10T02:27:14;20.10;99.90
25991;DHT22;13779;-33.886;151.198;2022-12-10T02:29:47;19.90;99.90
25991;DHT22;13779;-33.886;151.198;2022-12-10T02:32:22;19.90;99.90
25991;DHT22;13779;-33.886;151.198;2022-12-10T02:34:57;19.80;99.90
25991;DHT22;13779;-33.886;151.198;2022-12-10T02:37:39;20.00;99.90
25991;DHT22;13779;-33.886;151.198;2022-12-10T02:40:19;20.20;99.90
25991;DHT22;13779;-33.886;151.198;2022-12-10T02:42:51;20.30;99.90
25991;DHT22;13779;-33.886;151.198;2022-12-10T02:45:24;20.30;99.90
25991;DHT22;13779;-33.886;151.198;2022-12-10T02:47:58;20.40;99.90
25991;DHT22;13779;-33.886;151.198;2022-12-10T02:50:29;20.50;99.90
25991;DHT22;13779;-33.886;151.198;2022-12-10T02:52:59;20.60;99.90
25991;DHT22;13779;-33.886;151.198;2022-12-10T02:55:53;20.70;99.90
25991;DHT22;13779;-33.886;151.198;2022-12-10T03:01:55;20.90;99.90
25991;DHT22;13779;-33.886;151.198;2022-12-10T03:07:10;20.60;99.90
25991;DHT22;13779;-33.886;151.198;2022-12-10T03:09:55;20.30;99.90
25991;DHT22;13779;-33.886;151.198;2022-12-10T03:12:39;20.20;99.90
25991;DHT22;13779;-33.886;151.198;2022-12-10T03:15:11;20.10;99.90
25991;DHT22;13779;-33.886;151.198;2022-12-10T03:17:44;20.00;99.90
25991;DHT22;13779;-33.886;151.198;2022-12-10T03:20:16;20.00;99.90
25991;DHT22;13779;-33.886;151.198;2022-12-10T03:22:46;20.10;99.90
25991;DHT22;13779;-33.886;151.198;2022-12-10T03:25:24;20.30;99.90
25991;DHT22;13779;-33.886;151.198;2022-12-10T03:27:56;20.40;99.90
25991;DHT22;13779;-33.886;151.198;2022-12-10T03:30:30;20.30;99.90
25991;DHT22;13779;-33.886;151.198;2022-12-10T03:33:02;20.40;99.90
25991;DHT22;13779;-33.886;151.198;2022-12-10T03:35:32;20.50;99.90
25991;DHT22;13779;-33.886;151.198;2022-12-10T03:38:03;20.40;99.90
25991;DHT22;13779;-33.886;151.198;2022-12-10T03:40:35;20.50;99.90
25991;DHT22;13779;-33.886;151.198;2022-12-10T03:43:06;20.60;99.90
25991;DHT22;13779;-33.886;151.198;2022-12-10T03:45:36;20.70;99.90
25991;DHT22;13779;-33.886;151.198;2022-12-10T03:48:06;20.70;99.90
25991;DHT22;13779;-33.886;151.198;2022-12-10T03:50:37;20.50;99.90
25991;DHT22;13779;-33.886;151.198;2022-12-10T03:53:08;20.50;99.90
25991;DHT22;13779;-33.886;151.198;2022-12-10T03:55:38;20.40;99.90
25991;DHT22;13779;-33.886;151.198;2022-12-10T03:58:09;20.30;99.90
25991;DHT22;13779;-33.886;151.198;2022-12-10T04:00:44;20.40;99.90
25991;DHT22;13779;-33.886;151.198;2022-12-10T04:03:15;20.40;99.90
25991;DHT22;13779;-33.886;151.198;2022-12-10T04:05:45;20.50;99.90
25991;DHT22;13779;-33.886;151.198;2022-12-10T04:08:16;20.60;99.90
25991;DHT22;13779;-33.886;151.198;2022-12-10T04:10:47;20.60;99.90
25991;DHT22;13779;-33.886;151.198;2022-12-10T04:13:17;20.70;99.90
25991;DHT22;13779;-33.886;151.198;2022-12-10T04:16:07;20.70;99.90
25991;DHT22;13779;-33.886;151.198;2022-12-10T04:19:01;20.70;99.90
25991;DHT22;13779;-33.886;151.198;2022-12-10T04:21:34;20.40;99.90
25991;DHT22;13779;-33.886;151.198;2022-12-10T04:24:26;20.30;99.90
25991;DHT22;13779;-33.886;151.198;2022-12-10T04:29:52;20.30;99.90
25991;DHT22;13779;-33.886;151.198;2022-12-10T04:32:24;20.30;99.90
25991;DHT22;13779;-33.886;151.198;2022-12-10T04:34:55;20.20;99.90
25991;DHT22;13779;-33.886;151.198;2022-12-10T04:37:26;20.10;99.90
25991;DHT22;13779;-33.886;151.198;2022-12-10T04:39:56;20.10;99.90
25991;DHT22;13779;-33.886;151.198;2022-12-10T04:42:26;20.10;99.90
25991;DHT22;13779;-33.886;151.198;2022-12-10T04:44:56;20.10;99.90
25991;DHT22;13779;-33.886;151.198;2022-12-10T04:47:26;20.10;99.90
25991;DHT22;13779;-33.886;151.198;2022-12-10T04:49:56;20.20;99.90
25991;DHT22;13779;-33.886;151.198;2022-12-10T04:52:26;20.30;99.90
25991;DHT22;13779;-33.886;151.198;2022-12-10T04:54:56;20.20;99.90
25991;DHT22;13779;-33.886;151.198;2022-12-10T04:57:27;20.30;99.90
25991;DHT22;13779;-33.886;151.198;2022-12-10T04:59:57;20.30;99.90
25991;DHT22;13779;-33.886;151.198;2022-12-10T05:02:27;20.20;99.90
25991;DHT22;13779;-33.886;151.198;2022-12-10T05:04:57;20.20;99.90
25991;DHT22;13779;-33.886;151.198;2022-12-10T05:07:27;20.30;99.90
25991;DHT22;13779;-33.886;151.198;2022-12-10T05:09:58;20.40;99.90
25991;DHT22;13779;-33.886;151.198;2022-12-10T05:12:28;20.40;99.90
25991;DHT22;13779;-33.886;151.198;2022-12-10T05:14:58;20.50;99.90
25991;DHT22;13779;-33.886;151.198;2022-12-10T05:17:28;20.50;99.90
25991;DHT22;13779;-33.886;151.198;2022-12-10T05:19:58;20.50;99.90
25991;DHT22;13779;-33.886;151.198;2022-12-10T05:22:28;20.40;99.90
25991;DHT22;13779;-33.886;151.198;2022-12-10T05:25:16;20.40;99.90
25991;DHT22;13779;-33.886;151.198;2022-12-10T05:27:47;20.50;99.90
25991;DHT22;13779;-33.886;151.198;2022-12-10T05:30:17;20.50;99.90
25991;DHT22;13779;-33.886;151.198;2022-12-10T05:32:47;20.60;99.90
25991;DHT22;13779;-33.886;151.198;2022-12-10T05:35:19;20.70;99.90
25991;DHT22;13779;-33.886;151.198;2022-12-10T05:37:49;20.70;99.90
25991;DHT22;13779;-33.886;151.198;2022-12-10T05:40:19;20.60;99.90
25991;DHT22;13779;-33.886;151.198;2022-12-10T05:42:49;20.50;99.90
25991;DHT22;13779;-33.886;151.198;2022-12-10T05:45:19;20.50;99.90
25991;DHT22;13779;-33.886;151.198;2022-12-10T05:47:49;20.50;99.90
25991;DHT22;13779;-33.886;151.198;2022-12-10T05:50:19;20.40;99.90
25991;DHT22;13779;-33.886;151.198;2022-12-10T05:52:51;20.40;99.90
25991;DHT22;13779;-33.886;151.198;2022-12-10T05:55:21;20.40;99.90
25991;DHT22;13779;-33.886;151.198;2022-12-10T05:57:51;20.50;99.90
25991;DHT22;13779;-33.886;151.198;2022-12-10T06:00:21;20.40;99.90
25991;DHT22;13779;-33.886;151.198;2022-12-10T06:02:53;20.50;99.90
25991;DHT22;13779;-33.886;151.198;2022-12-10T06:05:23;20.50;99.90
25991;DHT22;13779;-33.886;151.198;2022-12-10T06:07:53;20.50;99.90
25991;DHT22;13779;-33.886;151.198;2022-12-10T06:10:23;20.40;99.90
25991;DHT22;13779;-33.886;151.198;2022-12-10T06:12:54;20.40;99.90
25991;DHT22;13779;-33.886;151.198;2022-12-10T06:15:24;20.40;99.90
25991;DHT22;13779;-33.886;151.198;2022-12-10T06:17:55;20.40;99.90
25991;DHT22;13779;-33.886;151.198;2022-12-10T06:20:26;20.40;99.90
25991;DHT22;13779;-33.886;151.198;2022-12-10T06:22:57;20.30;99.90
25991;DHT22;13779;-33.886;151.198;2022-12-10T06:25:29;20.30;99.90
25991;DHT22;13779;-33.886;151.198;2022-12-10T06:28:01;20.20;99.90
25991;DHT22;13779;-33.886;151.198;2022-12-10T06:30:32;20.30;99.90
25991;DHT22;13779;-33.886;151.198;2022-12-10T06:33:03;20.20;99.90
25991;DHT22;13779;-33.886;151.198;2022-12-10T06:35:34;20.20;99.90
25991;DHT22;13779;-33.886;151.198;2022-12-10T06:38:04;20.20;99.90
25991;DHT22;13779;-33.886;151.198;2022-12-10T06:40:38;20.40;99.90
25991;DHT22;13779;-33.886;151.198;2022-12-10T06:43:08;20.40;99.90
25991;DHT22;13779;-33.886;151.198;2022-12-10T06:45:40;20.40;99.90
25991;DHT22;13779;-33.886;151.198;2022-12-10T06:48:11;20.40;99.90
25991;DHT22;13779;-33.886;151.198;2022-12-10T06:50:42;20.40;99.90
25991;DHT22;13779;-33.886;151.198;2022-12-10T06:53:12;20.40;99.90
25991;DHT22;13779;-33.886;151.198;2022-12-10T06:55:43;20.40;99.90
25991;DHT22;13779;-33.886;151.198;2022-12-10T06:58:13;20.30;99.90
25991;DHT22;13779;-33.886;151.198;2022-12-10T07:00:45;20.20;99.90
25991;DHT22;13779;-33.886;151.198;2022-12-10T07:03:15;20.20;99.90
25991;DHT22;13779;-33.886;151.198;2022-12-10T07:05:46;20.10;99.90
25991;DHT22;13779;-33.886;151.198;2022-12-10T07:08:18;20.00;99.90
25991;DHT22;13779;-33.886;151.198;2022-12-10T07:10:53;20.00;99.90
25991;DHT22;13779;-33.886;151.198;2022-12-10T07:13:24;19.90;99.90
25991;DHT22;13779;-33.886;151.198;2022-12-10T07:15:58;19.90;99.90
25991;DHT22;13779;-33.886;151.198;2022-12-10T07:18:29;19.80;99.90
25991;DHT22;13779;-33.886;151.198;2022-12-10T07:20:59;19.80;99.90
25991;DHT22;13779;-33.886;151.198;2022-12-10T07:23:30;19.70;99.90
25991;DHT22;13779;-33.886;151.198;2022-12-10T07:26:00;19.70;99.90
25991;DHT22;13779;-33.886;151.198;2022-12-10T07:28:31;19.80;99.90
25991;DHT22;13779;-33.886;151.198;2022-12-10T07:31:06;19.80;99.90
25991;DHT22;13779;-33.886;151.198;2022-12-10T07:33:37;19.80;99.90
25991;DHT22;13779;-33.886;151.198;2022-12-10T07:36:11;19.70;99.90
25991;DHT22;13779;-33.886;151.198;2022-12-10T07:38:43;19.70;99.90
25991;DHT22;13779;-33.886;151.198;2022-12-10T07:41:14;19.80;99.90
25991;DHT22;13779;-33.886;151.198;2022-12-10T07:43:45;19.80;99.90
25991;DHT22;13779;-33.886;151.198;2022-12-10T07:46:20;19.80;99.90
25991;DHT22;13779;-33.886;151.198;2022-12-10T07:48:52;19.80;99.90
25991;DHT22;13779;-33.886;151.198;2022-12-10T07:51:23;19.80;99.90
25991;DHT22;13779;-33.886;151.198;2022-12-10T07:53:54;19.80;99.90
25991;DHT22;13779;-33.886;151.198;2022-12-10T07:56:25;19.80;99.90
25991;DHT22;13779;-33.886;151.198;2022-12-10T07:58:56;19.80;99.90
25991;DHT22;13779;-33.886;151.198;2022-12-10T08:01:27;19.80;99.90
25991;DHT22;13779;-33.886;151.198;2022-12-10T08:03:57;19.80;99.90
25991;DHT22;13779;-33.886;151.198;2022-12-10T08:06:29;19.80;99.90
25991;DHT22;13779;-33.886;151.198;2022-12-10T08:08:59;19.70;99.90
25991;DHT22;13779;-33.886;151.198;2022-12-10T08:11:29;19.60;99.90
25991;DHT22;13779;-33.886;151.198;2022-12-10T08:14:00;19.60;99.90
25991;DHT22;13779;-33.886;151.198;2022-12-10T08:16:31;19.60;99.90
25991;DHT22;13779;-33.886;151.198;2022-12-10T08:19:02;19.50;99.90
25991;DHT22;13779;-33.886;151.198;2022-12-10T08:21:32;19.50;99.90
25991;DHT22;13779;-33.886;151.198;2022-12-10T08:24:03;19.50;99.90
25991;DHT22;13779;-33.886;151.198;2022-12-10T08:26:33;19.50;99.90
25991;DHT22;13779;-33.886;151.198;2022-12-10T08:29:03;19.40;99.90
25991;DHT22;13779;-33.886;151.198;2022-12-10T08:31:33;19.50;99.90
25991;DHT22;13779;-33.886;151.198;2022-12-10T08:34:10;19.40;99.90
25991;DHT22;13779;-33.886;151.198;2022-12-10T08:36:42;19.40;99.90
25991;DHT22;13779;-33.886;151.198;2022-12-10T08:39:12;19.40;99.90
25991;DHT22;13779;-33.886;151.198;2022-12-10T08:41:46;19.40;99.90
25991;DHT22;13779;-33.886;151.198;2022-12-10T08:44:16;19.30;99.90
25991;DHT22;13779;-33.886;151.198;2022-12-10T08:46:46;19.30;99.90
25991;DHT22;13779;-33.886;151.198;2022-12-10T08:49:16;19.30;99.90
25991;DHT22;13779;-33.886;151.198;2022-12-10T08:51:47;19.30;99.90
25991;DHT22;13779;-33.886;151.198;2022-12-10T08:54:17;19.30;99.90
25991;DHT22;13779;-33.886;151.198;2022-12-10T08:56:47;19.30;99.90
25991;DHT22;13779;-33.886;151.198;2022-12-10T08:59:18;19.30;99.90
25991;DHT22;13779;-33.886;151.198;2022-12-10T09:01:48;19.30;99.90
25991;DHT22;13779;-33.886;151.198;2022-12-10T09:04:23;19.40;99.90
25991;DHT22;13779;-33.886;151.198;2022-12-10T09:06:53;19.30;99.90
25991;DHT22;13779;-33.886;151.198;2022-12-10T09:09:24;19.40;99.90
25991;DHT22;13779;-33.886;151.198;2022-12-10T09:11:54;19.30;99.90
25991;DHT22;13779;-33.886;151.198;2022-12-10T09:14:24;19.20;99.90
25991;DHT22;13779;-33.886;151.198;2022-12-10T09:16:54;19.20;99.90
25991;DHT22;13779;-33.886;151.198;2022-12-10T09:19:24;19.20;99.90
25991;DHT22;13779;-33.886;151.198;2022-12-10T09:21:54;19.20;99.90
25991;DHT22;13779;-33.886;151.198;2022-12-10T09:24:26;19.20;99.90
25991;DHT22;13779;-33.886;151.198;2022-12-10T09:26:57;19.20;99.90
25991;DHT22;13779;-33.886;151.198;2022-12-10T09:29:27;19.20;99.90
25991;DHT22;13779;-33.886;151.198;2022-12-10T09:31:57;19.20;99.90
25991;DHT22;13779;-33.886;151.198;2022-12-10T09:34:27;19.30;99.90
25991;DHT22;13779;-33.886;151.198;2022-12-10T09:36:57;19.20;99.90
25991;DHT22;13779;-33.886;151.198;2022-12-10T09:39:28;19.20;99.90
25991;DHT22;13779;-33.886;151.198;2022-12-10T09:48:41;19.10;99.90
25991;DHT22;13779;-33.886;151.198;2022-12-10T09:53:52;19.20;99.90
25991;DHT22;13779;-33.886;151.198;2022-12-10T09:56:33;19.20;99.90
25991;DHT22;13779;-33.886;151.198;2022-12-10T09:59:20;19.20;99.90
25991;DHT22;13779;-33.886;151.198;2022-12-10T10:02:11;19.20;99.90
25991;DHT22;13779;-33.886;151.198;2022-12-10T10:04:43;19.20;99.90
25991;DHT22;13779;-33.886;151.198;2022-12-10T10:07:23;19.20;99.90
25991;DHT22;13779;-33.886;151.198;2022-12-10T10:09:58;19.10;99.90
25991;DHT22;13779;-33.886;151.198;2022-12-10T10:12:31;19.10;99.90
25991;DHT22;13779;-33.886;151.198;2022-12-10T10:15:13;19.10;99.90
25991;DHT22;13779;-33.886;151.198;2022-12-10T10:17:44;19.20;99.90
25991;DHT22;13779;-33.886;151.198;2022-12-10T10:20:15;19.20;99.90
25991;DHT22;13779;-33.886;151.198;2022-12-10T10:22:45;19.20;99.90
25991;DHT22;13779;-33.886;151.198;2022-12-10T10:25:18;19.10;99.90
25991;DHT22;13779;-33.886;151.198;2022-12-10T10:27:49;19.10;99.90
25991;DHT22;13779;-33.886;151.198;2022-12-10T10:30:22;19.20;99.90
25991;DHT22;13779;-33.886;151.198;2022-12-10T10:32:54;19.10;99.90
25991;DHT22;13779;-33.886;151.198;2022-12-10T10:35:29;19.20;99.90
25991;DHT22;13779;-33.886;151.198;2022-12-10T10:38:05;19.20;99.90
25991;DHT22;13779;-33.886;151.198;2022-12-10T10:40:44;19.20;99.90
25991;DHT22;13779;-33.886;151.198;2022-12-10T10:46:13;19.20;99.90
25991;DHT22;13779;-33.886;151.198;2022-12-10T10:48:45;19.20;99.90
25991;DHT22;13779;-33.886;151.198;2022-12-10T10:51:21;19.20;99.90
25991;DHT22;13779;-33.886;151.198;2022-12-10T10:53:57;19.10;99.90
25991;DHT22;13779;-33.886;151.198;2022-12-10T10:56:40;19.20;99.90
25991;DHT22;13779;-33.886;151.198;2022-12-10T11:01:51;19.30;99.90
25991;DHT22;13779;-33.886;151.198;2022-12-10T11:07:16;19.20;99.90
25991;DHT22;13779;-33.886;151.198;2022-12-10T11:09:49;19.20;99.90
25991;DHT22;13779;-33.886;151.198;2022-12-10T11:12:38;19.10;99.90
25991;DHT22;13779;-33.886;151.198;2022-12-10T11:17:56;19.20;99.90
25991;DHT22;13779;-33.886;151.198;2022-12-10T11:20:30;19.20;99.90
25991;DHT22;13779;-33.886;151.198;2022-12-10T11:23:12;19.20;99.90
25991;DHT22;13779;-33.886;151.198;2022-12-10T11:25:52;19.10;99.90
25991;DHT22;13779;-33.886;151.198;2022-12-10T11:31:44;19.10;99.90
25991;DHT22;13779;-33.886;151.198;2022-12-10T11:40:28;19.10;99.90
25991;DHT22;13779;-33.886;151.198;2022-12-10T11:43:21;19.10;99.90
25991;DHT22;13779;-33.886;151.198;2022-12-10T11:46:12;19.00;99.90
25991;DHT22;13779;-33.886;151.198;2022-12-10T11:49:23;19.10;99.90
25991;DHT22;13779;-33.886;151.198;2022-12-10T11:55:23;19.20;99.90
25991;DHT22;13779;-33.886;151.198;2022-12-10T12:00:52;19.10;99.90
25991;DHT22;13779;-33.886;151.198;2022-12-10T12:09:11;19.10;99.90
25991;DHT22;13779;-33.886;151.198;2022-12-10T12:14:55;19.20;99.90
25991;DHT22;13779;-33.886;151.198;2022-12-10T12:17:55;19.20;99.90
25991;DHT22;13779;-33.886;151.198;2022-12-10T12:21:07;19.10;99.90
25991;DHT22;13779;-33.886;151.198;2022-12-10T12:23:56;19.10;99.90
25991;DHT22;13779;-33.886;151.198;2022-12-10T12:26:50;19.10;99.90
25991;DHT22;13779;-33.886;151.198;2022-12-10T12:35:16;19.10;99.90
25991;DHT22;13779;-33.886;151.198;2022-12-10T12:38:06;19.10;99.90
25991;DHT22;13779;-33.886;151.198;2022-12-10T12:40:49;19.10;99.90
25991;DHT22;13779;-33.886;151.198;2022-12-10T12:46:20;19.10;99.90
25991;DHT22;13779;-33.886;151.198;2022-12-10T12:48:56;19.00;99.90
25991;DHT22;13779;-33.886;151.198;2022-12-10T12:51:34;19.10;99.90
25991;DHT22;13779;-33.886;151.198;2022-12-10T12:54:10;19.00;99.90
25991;DHT22;13779;-33.886;151.198;2022-12-10T12:57:02;19.00;99.90
25991;DHT22;13779;-33.886;151.198;2022-12-10T13:04:54;19.00;99.90
25991;DHT22;13779;-33.886;151.198;2022-12-10T13:12:50;18.90;99.90
25991;DHT22;13779;-33.886;151.198;2022-12-10T13:15:43;18.90;99.90
25991;DHT22;13779;-33.886;151.198;2022-12-10T13:23:51;18.90;99.90
25991;DHT22;13779;-33.886;151.198;2022-12-10T13:26:30;18.90;99.90
25991;DHT22;13779;-33.886;151.198;2022-12-10T13:29:25;18.90;99.90
25991;DHT22;13779;-33.886;151.198;2022-12-10T13:32:04;18.80;99.90
25991;DHT22;13779;-33.886;151.198;2022-12-10T13:34:37;18.80;99.90
25991;DHT22;13779;-33.886;151.198;2022-12-10T13:39:52;18.90;99.90
25991;DHT22;13779;-33.886;151.198;2022-12-10T13:42:30;18.90;99.90
25991;DHT22;13779;-33.886;151.198;2022-12-10T13:51:13;18.80;99.90
25991;DHT22;13779;-33.886;151.198;2022-12-10T14:00:14;18.60;99.90
25991;DHT22;13779;-33.886;151.198;2022-12-10T14:02:59;18.60;99.90
25991;DHT22;13779;-33.886;151.198;2022-12-10T14:08:37;18.60;99.90
25991;DHT22;13779;-33.886;151.198;2022-12-10T14:11:20;18.50;99.90
25991;DHT22;13779;-33.886;151.198;2022-12-10T14:13:57;18.50;99.90
25991;DHT22;13779;-33.886;151.198;2022-12-10T14:16:32;18.40;99.90
25991;DHT22;13779;-33.886;151.198;2022-12-10T14:19:07;18.50;99.90
25991;DHT22;13779;-33.886;151.198;2022-12-10T14:21:42;18.50;99.90
25991;DHT22;13779;-33.886;151.198;2022-12-10T14:24:36;18.40;99.90
25991;DHT22;13779;-33.886;151.198;2022-12-10T14:27:17;18.30;99.90
25991;DHT22;13779;-33.886;151.198;2022-12-10T14:30:31;18.20;99.90
25991;DHT22;13779;-33.886;151.198;2022-12-10T14:32:42;18.30;99.90
25991;DHT22;13779;-33.886;151.198;2022-12-10T14:35:19;18.40;99.90
25991;DHT22;13779;-33.886;151.198;2022-12-10T14:37:54;18.30;99.90
25991;DHT22;13779;-33.886;151.198;2022-12-10T14:40:26;18.30;99.90
25991;DHT22;13779;-33.886;151.198;2022-12-10T14:43:32;18.40;99.90
25991;DHT22;13779;-33.886;151.198;2022-12-10T14:46:12;18.30;99.90
25991;DHT22;13779;-33.886;151.198;2022-12-10T14:48:43;18.30;99.90
25991;DHT22;13779;-33.886;151.198;2022-12-10T14:51:18;18.30;99.90
25991;DHT22;13779;-33.886;151.198;2022-12-10T14:53:50;18.30;99.90
25991;DHT22;13779;-33.886;151.198;2022-12-10T14:56:26;18.30;99.90
25991;DHT22;13779;-33.886;151.198;2022-12-10T15:01:47;18.20;99.90
25991;DHT22;13779;-33.886;151.198;2022-12-10T15:04:20;18.20;99.90
25991;DHT22;13779;-33.886;151.198;2022-12-10T15:06:57;18.20;99.90
25991;DHT22;13779;-33.886;151.198;2022-12-10T15:09:28;18.20;99.90
25991;DHT22;13779;-33.886;151.198;2022-12-10T15:12:00;18.20;99.90
25991;DHT22;13779;-33.886;151.198;2022-12-10T15:14:30;18.20;99.90
25991;DHT22;13779;-33.886;151.198;2022-12-10T15:17:01;18.10;99.90
25991;DHT22;13779;-33.886;151.198;2022-12-10T15:19:32;18.20;99.90
25991;DHT22;13779;-33.886;151.198;2022-12-10T15:24:46;18.20;99.90
25991;DHT22;13779;-33.886;151.198;2022-12-10T15:27:25;18.20;99.90
25991;DHT22;13779;-33.886;151.198;2022-12-10T15:29:56;18.20;99.90
25991;DHT22;13779;-33.886;151.198;2022-12-10T15:32:28;18.20;99.90
25991;DHT22;13779;-33.886;151.198;2022-12-10T15:35:01;18.10;99.90
25991;DHT22;13779;-33.886;151.198;2022-12-10T15:37:39;18.10;99.90
25991;DHT22;13779;-33.886;151.198;2022-12-10T15:40:40;18.10;99.90
25991;DHT22;13779;-33.886;151.198;2022-12-10T15:43:30;18.10;99.90
25991;DHT22;13779;-33.886;151.198;2022-12-10T15:46:01;18.20;99.90
25991;DHT22;13779;-33.886;151.198;2022-12-10T15:48:34;18.20;99.90
25991;DHT22;13779;-33.886;151.198;2022-12-10T15:51:04;18.20;99.90
25991;DHT22;13779;-33.886;151.198;2022-12-10T15:53:38;18.20;99.90
25991;DHT22;13779;-33.886;151.198;2022-12-10T15:56:09;18.20;99.90
25991;DHT22;13779;-33.886;151.198;2022-12-10T15:58:40;18.20;99.90
25991;DHT22;13779;-33.886;151.198;2022-12-10T16:01:14;18.20;99.90
25991;DHT22;13779;-33.886;151.198;2022-12-10T16:03:45;18.20;99.90
25991;DHT22;13779;-33.886;151.198;2022-12-10T16:06:15;18.20;99.90
25991;DHT22;13779;-33.886;151.198;2022-12-10T16:08:46;18.10;99.90
25991;DHT22;13779;-33.886;151.198;2022-12-10T16:11:18;18.20;99.90
25991;DHT22;13779;-33.886;151.198;2022-12-10T16:13:52;18.20;99.90
25991;DHT22;13779;-33.886;151.198;2022-12-10T16:16:25;18.20;99.90
25991;DHT22;13779;-33.886;151.198;2022-12-10T16:18:55;18.20;99.90
25991;DHT22;13779;-33.886;151.198;2022-12-10T16:21:26;18.20;99.90
25991;DHT22;13779;-33.886;151.198;2022-12-10T16:23:56;18.10;99.90
25991;DHT22;13779;-33.886;151.198;2022-12-10T16:26:28;18.10;99.90
25991;DHT22;13779;-33.886;151.198;2022-12-10T16:28:58;18.10;99.90
25991;DHT22;13779;-33.886;151.198;2022-12-10T16:31:29;18.00;99.90
25991;DHT22;13779;-33.886;151.198;2022-12-10T16:34:00;18.00;99.90
25991;DHT22;13779;-33.886;151.198;2022-12-10T16:36:31;17.90;99.90
25991;DHT22;13779;-33.886;151.198;2022-12-10T16:39:02;17.90;99.90
25991;DHT22;13779;-33.886;151.198;2022-12-10T16:41:32;17.90;99.90
25991;DHT22;13779;-33.886;151.198;2022-12-10T16:44:03;17.90;99.90
25991;DHT22;13779;-33.886;151.198;2022-12-10T16:46:34;17.80;99.90
25991;DHT22;13779;-33.886;151.198;2022-12-10T16:49:04;17.80;99.90
25991;DHT22;13779;-33.886;151.198;2022-12-10T16:51:35;17.80;99.90
25991;DHT22;13779;-33.886;151.198;2022-12-10T16:54:08;17.80;99.90
25991;DHT22;13779;-33.886;151.198;2022-12-10T16:56:39;17.80;99.90
25991;DHT22;13779;-33.886;151.198;2022-12-10T16:59:11;17.80;99.90
25991;DHT22;13779;-33.886;151.198;2022-12-10T17:01:42;17.70;99.90
25991;DHT22;13779;-33.886;151.198;2022-12-10T17:04:12;17.80;99.90
25991;DHT22;13779;-33.886;151.198;2022-12-10T17:06:43;17.70;99.90
25991;DHT22;13779;-33.886;151.198;2022-12-10T17:09:13;17.60;99.90
25991;DHT22;13779;-33.886;151.198;2022-12-10T17:11:45;17.60;99.90
25991;DHT22;13779;-33.886;151.198;2022-12-10T17:14:31;17.60;99.90
25991;DHT22;13779;-33.886;151.198;2022-12-10T17:17:03;17.60;99.90